Indian Springs, Indiana
Current Conditions -  °F | °C
As of 10:55 AM on Thursday 30 Oct 2014 (Local Time) from KDCY Reporting Station
Clear Clear  
Wind Chill: 45°   Ceiling: Unl
Heat Index: 49°   Visibility: 10mi
Dew Point: 36°   Wind: 7mph
Humidity: 62%   Direction: 130°SE
Pressure: 30.17"   Gusts: NA
Location:  38.6262°N, 86.7615°W
Report Text: KDCY 301555Z AUTO 13006KT 10SM CLR 09/02 A3017 RMK AO2 T00920023
Loading
Personal Weather Stations






























Interactive Weather Map New forecast layout! Learn more

10-Day Weather Forecast

Advertisements
Track Severe Weather on mobile